Flight Track Log - Related Links

Times and Time Zones

All times are in EDT time to prevent confusion due to time zone crossing. See the N563WD flight status page for this flight to view local times or setup timezone preferences in your user account.

Time Position Orientation Groundspeed Altitude Reporting Facility
EDT Latitude Longitude Course Direction KTS MPH feet Rate Location/Type
Fri 10:53:08 AM 29.6353 -95.2867 152° Southeast 174 200 600  Level Houston Center
Fri 10:54:16 AM 29.6019 -95.2667 152° Southeast 231 266 3,800 2,884 Climbing Houston Center
Fri 10:55:17 AM 29.6669 -95.2661 360° North 241 277 6,800 2,095 Climbing Houston Center
Fri 10:56:22 AM 29.7292 -95.2925 340° North 258 297 8,200 1,721 Climbing Houston Center
Fri 10:57:19 AM 29.8203 -95.3342 338° Northwest 312 359 10,300 2,064 Climbing Houston Center
Fri 10:58:27 AM 29.9089 -95.3725 339° North 311 358 12,500 1,615 Climbing Houston Center
Fri 10:59:29 AM 29.9922 -95.4100 339° North 315 362 13,800 1,452 Climbing Houston Center
Fri 11:00:31 AM 30.0817 -95.4489 339° North 334 384 15,500 1,597 Climbing Houston Center
Fri 11:01:33 AM 30.1700 -95.4883 339° North 339 390 17,100 1,403 Climbing Houston Center
Fri 11:02:35 AM 30.2803 -95.5383 339° North 350 403 18,400 1,161 Climbing Houston Center
Fri 11:03:37 AM 30.3761 -95.5803 339° North 361 415 19,500 1,016 Climbing Houston Center
Fri 11:04:39 AM 30.4736 -95.6228 339° North 371 427 20,500 1,016 Climbing Houston Center
Fri 11:05:41 AM 30.5736 -95.6678 339° North 382 440 21,600 1,065 Climbing Houston Center
Fri 11:06:43 AM 30.6711 -95.7222 334° Northwest 387 445 22,700 1,008 Climbing Houston Center
Fri 11:07:46 AM 30.7697 -95.7778 334° Northwest 385 443 23,700 960 Climbing Houston Center
Fri 11:08:48 AM 30.8897 -95.8417 335° Northwest 393 452 24,700 871 Climbing Houston Center
Fri 11:09:50 AM 30.9900 -95.8950 335° Northwest 395 455 25,500 677 Climbing Houston Center
Fri 11:10:52 AM 31.0900 -95.9489 335° Northwest 394 453 26,100 532 Climbing Houston Center
Fri 11:11:54 AM 31.1950 -95.9939 340° North 400 460 26,600 581 Climbing Houston Center
Fri 11:12:56 AM 31.3011 -96.0361 341° North 402 463 27,300 774 Climbing Houston Center
Fri 11:13:58 AM 31.4075 -96.0769 342° North 402 463 28,200 968 Climbing Houston Center
Fri 11:15:00 AM 31.5200 -96.1206 342° North 399 459 29,300 1,016 Climbing Houston Center
Fri 11:16:02 AM 31.6133 -96.1939 326° Northwest 399 459 30,300 960 Climbing Houston Center
Fri 11:17:05 AM 31.6889 -96.2914 312° West 401 461 31,300 1,056 Climbing Houston Center
Fri 11:18:07 AM 31.7764 -96.4047 312° West 400 460 32,500 1,065 Climbing Houston Center
Fri 11:19:09 AM 31.8517 -96.5025 312° West 401 461 33,500 968 Climbing Houston Center
Fri 11:20:11 AM 31.9264 -96.6006 312° West 399 459 34,500 968 Climbing Houston Center
Fri 11:21:13 AM 32.0008 -96.6983 312° West 398 458 35,500 1,016 Climbing Houston Center
Fri 11:22:15 AM 32.0750 -96.7958 312° West 396 456 36,600 1,016 Climbing Houston Center
Fri 11:23:17 AM 32.1489 -96.8936 312° West 396 456 37,600 1,015 Climbing Houston Center
Fri 11:24:31 AM 32.2419 -97.0278 309° West 400 460 38,900 1,030 Climbing Fort Worth Center
Fri 11:25:31 AM 32.3133 -97.1208 312° West 395 455 39,900 550 Climbing Fort Worth Center
Fri 11:26:31 AM 32.3864 -97.2167 312° West 395 455 40,000 50 Climbing Fort Worth Center
Fri 11:27:31 AM 32.4597 -97.3172 311° West 395 455 40,000  Level Fort Worth Center
Fri 11:28:31 AM 32.5347 -97.4183 311° West 405 466 40,000  Level Fort Worth Center
Fri 11:29:31 AM 32.6119 -97.5219 312° West 405 466 40,000  Level Fort Worth Center
Fri 11:30:31 AM 32.6869 -97.6258 311° West 410 472 40,000  Level Fort Worth Center
Fri 11:31:31 AM 32.7661 -97.7272 313° West 410 472 40,000  Level Fort Worth Center
Fri 11:32:31 AM 32.8411 -97.8314 311° West 416 479 40,000  Level Fort Worth Center
Fri 11:33:32 AM 32.9117 -97.9231 313° West 416 479 40,000  Level Fort Worth Center
Fri 11:34:31 AM 32.9883 -98.0278 311° West 411 473 40,000  Level Fort Worth Center
Fri 11:35:31 AM 33.0672 -98.1322 312° West 416 479 40,000  Level Fort Worth Center
Fri 11:36:31 AM 33.1458 -98.2422 310° West 416 479 40,000  Level Fort Worth Center
Fri 11:37:31 AM 33.2222 -98.3447 312° West 416 479 40,000  Level Fort Worth Center
Fri 11:38:31 AM 33.3028 -98.4597 310° West 422 486 40,000  Level Fort Worth Center
Fri 11:39:31 AM 33.3772 -98.5553 313° West 411 473 40,000  Level Fort Worth Center
Fri 11:40:31 AM 33.4533 -98.6608 311° West 416 479 40,000  Level Fort Worth Center
Fri 11:41:31 AM 33.5336 -98.7717 311° West 416 479 40,000  Level Fort Worth Center
Fri 11:42:31 AM 33.6117 -98.8850 310° West 431 496 40,000  Level Fort Worth Center
Fri 11:43:31 AM 33.6917 -98.9936 312° West 431 496 40,000  Level Fort Worth Center
Fri 11:44:31 AM 33.7675 -99.1050 309° West 431 496 40,000  Level Fort Worth Center
Fri 11:45:31 AM 33.8453 -99.2117 311° West 426 490 40,000  Level Fort Worth Center
Fri 11:46:31 AM 33.9250 -99.3183 312° West 426 490 40,000  Level Fort Worth Center
Fri 11:47:31 AM 34.0025 -99.4328 309° West 434 499 40,000  Level Fort Worth Center
Fri 11:48:31 AM 34.0800 -99.5450 310° West 434 499 40,000  Level Fort Worth Center
Fri 11:49:31 AM 34.1594 -99.6572 311° West 441 507 40,000  Level Fort Worth Center
Fri 11:51:56 AM 34.3419 -99.9186 310° West 440 506 40,000  Level Albuquerque Center
Fri 11:52:58 AM 34.4358 -100.0564 310° West 440 506 40,000  Level Albuquerque Center
Fri 11:54:00 AM 34.5139 -100.1669 311° West 440 506 40,000  Level Albuquerque Center
Fri 11:55:02 AM 34.5925 -100.2808 310° West 441 507 40,000  Level Albuquerque Center
Fri 11:56:04 AM 34.6736 -100.3997 310° West 442 509 40,000  Level Albuquerque Center
Fri 11:57:06 AM 34.7492 -100.5092 310° West 441 507 40,000  Level Albuquerque Center
Fri 11:58:08 AM 34.8428 -100.6478 309° West 443 510 40,000  Level Albuquerque Center
Fri 11:59:10 AM 34.9214 -100.7619 310° West 442 509 40,000  Level Albuquerque Center
Fri 12:00:12 PM 35.0000 -100.8781 310° West 444 511 40,000  Level Albuquerque Center
Fri 12:01:14 PM 35.0781 -100.9928 310° West 443 510 40,000  Level Albuquerque Center
Fri 12:02:16 PM 35.1553 -101.1089 309° West 442 509 40,000  Level Albuquerque Center
Fri 12:03:18 PM 35.2492 -101.2469 310° West 443 510 40,000  Level Albuquerque Center
Fri 12:04:20 PM 35.3197 -101.3536 309° West 446 513 40,000  Level Albuquerque Center
Fri 12:05:22 PM 35.3978 -101.4711 309° West 444 511 40,000  Level Albuquerque Center
Fri 12:06:24 PM 35.4744 -101.5875 309° West 441 507 40,000  Level Albuquerque Center
Fri 12:07:27 PM 35.5706 -101.7308 310° West 441 507 40,000  Level Albuquerque Center
Fri 12:08:29 PM 35.6447 -101.8436 309° West 432 497 40,000  Level Albuquerque Center
Fri 12:09:31 PM 35.7197 -101.9592 309° West 433 498 40,000  Level Albuquerque Center
Fri 12:10:33 PM 35.7956 -102.0736 309° West 434 499 40,000  Level Albuquerque Center
Fri 12:11:35 PM 35.8714 -102.1911 309° West 438 504 40,000  Level Albuquerque Center
Fri 12:12:37 PM 35.9475 -102.3081 309° West 438 504 40,000  Level Albuquerque Center
Fri 12:13:39 PM 36.0392 -102.4483 309° West 439 505 40,000  Level Albuquerque Center
Fri 12:14:41 PM 36.1147 -102.5658 309° West 438 504 40,000  Level Albuquerque Center
Fri 12:15:43 PM 36.1903 -102.6828 309° West 437 503 40,000  Level Albuquerque Center
Fri 12:16:45 PM 36.2653 -102.8003 308° West 436 502 40,000  Level Albuquerque Center
Fri 12:17:47 PM 36.3511 -102.9336 309° West 436 502 40,000  Level Albuquerque Center
Fri 12:18:49 PM 36.4253 -103.0517 308° West 433 498 40,000  Level Albuquerque Center
Fri 12:19:51 PM 36.5011 -103.1714 308° West 436 502 40,000  Level Albuquerque Center
Fri 12:20:53 PM 36.5756 -103.2897 308° West 433 498 40,000  Level Albuquerque Center
Fri 12:21:55 PM 36.6536 -103.4131 308° West 430 495 40,000  Level Albuquerque Center
Fri 12:22:57 PM 36.7244 -103.5261 308° West 430 495 40,000 -48 Level Albuquerque Center
Fri 12:23:59 PM 36.8064 -103.6581 308° West 431 496 39,900 -532 Descending Albuquerque Center
Fri 12:25:01 PM 36.8767 -103.7706 308° West 429 494 38,900 -919 Descending Albuquerque Center
Fri 12:26:03 PM 36.9594 -103.9031 308° West 430 495 38,000 -432 Descending Albuquerque Center
Fri 12:27:06 PM 37.0303 -104.0167 308° West 431 496 38,000 -192 Level Albuquerque Center
Fri 12:28:08 PM 37.1125 -104.1514 307° West 433 498 37,600 -672 Descending Albuquerque Center
Fri 12:29:11 PM 37.1808 -104.2664 307° West 427 491 36,600 -1,008 Descending Denver Center
Fri 12:30:13 PM 37.2625 -104.3983 308° West 426 490 35,500 -1,016 Descending Denver Center
Fri 12:31:15 PM 37.3350 -104.5167 308° West 438 504 34,500 -968 Descending Denver Center
Fri 12:32:17 PM 37.4061 -104.6344 307° West 440 506 33,500 -1,016 Descending Denver Center
Fri 12:33:19 PM 37.4897 -104.7725 307° West 441 507 32,400 -968 Descending Denver Center
Fri 12:34:21 PM 37.5631 -104.8925 308° West 448 516 31,500 -968 Descending Denver Center
Fri 12:35:23 PM 37.6486 -105.0356 307° West 455 524 30,400 -726 Descending Denver Center
Fri 12:36:25 PM 37.7203 -105.1561 307° West 451 519 30,000 -194 Descending Denver Center
Fri 12:37:27 PM 37.8006 -105.2908 307° West 431 496 30,000 -145 Level Denver Center
Fri 12:38:29 PM 37.8683 -105.4050 307° West 424 488 29,700 -726 Descending Denver Center
Fri 12:39:31 PM 37.9494 -105.5425 307° West 435 501 28,500 -919 Descending Denver Center
Fri 12:40:33 PM 38.0200 -105.6611 307° West 440 506 27,800 -726 Descending Denver Center
Fri 12:41:35 PM 38.1008 -105.8003 306° West 438 504 27,000 -384 Descending Denver Center
Fri 12:42:38 PM 38.1689 -105.9164 307° West 427 491 27,000 -288 Level Denver Center
Fri 12:43:40 PM 38.2389 -106.0275 309° West 422 486 26,400 -1,016 Descending Denver Center
Fri 12:44:42 PM 38.3569 -106.1156 330° Northwest 436 502 24,900 -1,500 Descending Denver Center
Fri 12:45:44 PM 38.4672 -106.1944 331° Northwest 447 514 23,300 -1,500 Descending Denver Center
Fri 12:46:46 PM 38.5717 -106.2678 331° Northwest 430 495 21,800 -1,403 Descending Denver Center
Fri 12:47:48 PM 38.6875 -106.3514 331° Northwest 425 489 20,400 -1,161 Descending Denver Center
Fri 12:48:50 PM 38.7892 -106.4236 331° Northwest 419 482 19,400 -968 Descending Denver Center
Fri 12:49:52 PM 38.8950 -106.4958 332° Northwest 410 472 18,400 -774 Descending Denver Center
Fri 12:50:54 PM 38.9900 -106.5661 330° Northwest 410 472 17,800 -774 Descending Denver Center
Fri 12:51:56 PM 39.0978 -106.6439 331° Northwest 402 463 16,800 -484 Descending Denver Center
Fri 12:52:58 PM 39.1775 -106.7003 331° Northwest 354 407 16,800 -387 Level Denver Center
Fri 12:54:00 PM 39.2500 -106.7325 341° North 288 331 16,000 -484 Descending Denver Center
Fri 12:55:02 PM 39.3200 -106.7631 341° North 270 311 15,800 -97 Descending Denver Center
Fri 12:56:04 PM 39.3936 -106.7964 341° North 278 320 15,800 97 Level Denver Center
Fri 12:57:06 PM 39.4781 -106.8339 341° North 276 318 16,000  Climbing Denver Center
Fri 12:58:08 PM 39.5531 -106.8756 337° Northwest 264 304 15,800 -95 Descending Denver Center
Fri 12:59:12 PM 39.5678 -106.9661 282° West 269 310 15,800  Level Denver Center
Fri 01:00:14 PM 39.5067 -107.0042 206° Southwest 278 320 15,800 -387 Level Denver Center
Fri 01:01:16 PM 39.4433 -106.9756 161° South 283 326 15,000 -1,536 Descending Denver Center
Fri 01:02:19 PM 39.3689 -106.9394 159° South 275 316 12,600 -2,736 Descending Denver Center
Fri 01:03:21 PM 39.2897 -106.9019 160° South 264 304 9,300 -1,935 Descending Denver Center
Fri 01:04:23 PM 39.2361 -106.8761 160° South 252 290 8,600 -677 Descending Denver Center

Login

Don't have an account? Register now (free) for customized features, flight alerts, and more!